Latest Weather Observations for Woomera

IDS60801

Issued at 12:01 pm CST Sunday 23 September 2018 (issued every 10 minutes, with the page automatically refreshed every 10 minutes)

About weather observations | Map of weather stations | Latest weather observations for SA | Other Formats
Station Details ID: 016001 Name: WOOMERA AERODROME Lat: -31.16 Lon: 136.81 Height: 166.6 m
Data from the previous 72 hours. | See also: Recent months at Woomera
Date/Time
CST
Temp
°C
App
Temp
°C
Dew
Point
°C
Rel
Hum
%
Delta-T
°C
Wind Press
QNH
hPa
Press
MSL
hPa
Rain since
9am
mm
Dir  Spd
km/h
Gust
km/h
Spd
kts
Gust
kts
23/12:00pm 25.7 18.8 -2.8 15 12.5 SE 24 35 13 19 1029.0 1028.9 0.0
23/11:30am 24.8 18.7 0.3 20 11.3 ESE 22 32 12 17 1029.3 1029.2 0.0
23/11:00am 24.1 17.8 1.7 23 10.7 ESE 24 35 13 19 1029.5 1029.4 0.0
23/10:30am 23.0 16.9 2.5 26 9.7 ESE 24 32 13 17 1029.6 1029.5 0.0
23/10:00am 22.1 15.7 3.3 29 9.1 ESE 26 32 14 17 1029.7 1029.6 0.0
23/09:30am 21.8 15.0 3.0 29 8.9 ESE 28 33 15 18 1029.7 1029.6 0.0
23/09:00am 20.8 13.4 4.0 33 8.1 ESE 32 39 17 21 1029.5 1029.4 0.0
23/08:30am 19.5 13.2 5.6 40 6.8 ESE 28 32 15 17 1029.5 1029.4 0.0
23/08:00am 17.6 12.9 6.2 47 5.6 ESE 20 26 11 14 1029.6 1029.5 0.0
23/07:30am 15.7 11.3 6.7 55 4.4 SE 19 22 10 12 1029.4 1029.3 0.0
23/07:00am 14.2 9.7 6.8 61 3.6 SE 20 26 11 14 1029.1 1029.0 0.0
23/06:30am 13.4 9.4 6.5 63 3.3 SE 17 20 9 11 1028.8 1028.7 0.0
23/06:00am 13.4 9.7 6.5 63 3.3 SSE 15 20 8 11 1028.4 1028.3 0.0
23/05:30am 14.3 10.0 6.9 61 3.6 SSE 19 24 10 13 1027.9 1027.7 0.0
23/05:00am 14.3 10.0 6.9 61 3.6 SSE 19 26 10 14 1027.6 1027.4 0.0
23/04:30am 14.3 9.4 7.1 62 3.5 SSE 22 30 12 16 1027.4 1027.2 0.0
23/04:00am 14.5 10.0 6.8 60 3.8 SSE 20 28 11 15 1027.5 1027.3 0.0
23/03:30am 14.6 10.0 6.7 59 3.8 SSE 20 26 11 14 1027.4 1027.2 0.0
23/03:00am 14.8 11.5 6.4 57 4.1 SE 13 19 7 10 1027.5 1027.3 0.0
23/02:30am 15.2 10.7 6.0 54 4.4 SE 19 22 10 12 1027.7 1027.5 0.0
23/02:00am 15.3 10.9 5.0 50 4.9 SSE 17 20 9 11 1027.8 1027.6 0.0
23/01:30am 15.9 10.8 4.3 46 5.4 SSE 20 30 11 16 1027.8 1027.6 0.0
23/01:00am 16.2 10.9 1.9 38 6.4 S 19 24 10 13 1027.8 1027.6 0.0
23/12:30am 16.4 12.0 0.5 34 6.9 SSE 13 20 7 11 1027.9 1027.7 0.0
23/12:00am 17.0 10.7 -0.7 30 7.5 SSE 22 30 12 16 1027.7 1027.5 0.0
 
Date/Time
CST
Temp
°C
App
Temp
°C
Dew
Point
°C
Rel
Hum
%
Delta-T
°C
Wind Press
QNH
hPa
Press
MSL
hPa
Rain since
9am
mm
Dir  Spd
km/h
Gust
km/h
Spd
kts
Gust
kts
22/11:30pm 17.4 11.9 0.6 32 7.4 SSE 19 26 10 14 1027.7 1027.5 0.0
22/11:00pm 18.4 12.7 2.7 35 7.3 SE 22 28 12 15 1027.8 1027.6 0.0
22/10:30pm 19.2 13.5 2.6 33 7.7 SE 22 28 12 15 1027.8 1027.6 0.0
22/10:00pm 19.6 13.4 2.0 31 8.1 SE 24 32 13 17 1027.7 1027.5 0.0
22/09:30pm 18.9 15.2 -2.7 23 9.0 SSW 7 9 4 5 1027.1 1026.9 0.0
22/09:00pm 20.2 16.9 -1.6 23 9.4 S 6 6 3 3 1027.0 1026.8 0.0
22/08:30pm 21.2 17.7 -1.3 22 9.8 SSW 7 7 4 4 1026.9 1026.7 0.0
22/08:00pm 21.9 18.0 -1.4 21 10.3 S 9 11 5 6 1026.8 1026.6 0.0
22/07:30pm 21.6 17.3 -1.6 21 10.1 SSW 11 13 6 7 1026.5 1026.3 0.0
22/07:00pm 21.8 17.1 -2.1 20 10.4 SSW 13 15 7 8 1026.2 1026.0 0.0
22/06:30pm 23.7 19.1 -1.3 19 11.1 SSW 13 17 7 9 1026.0 1025.8 0.0
22/06:00pm 25.2 20.0 -2.4 16 12.2 S 15 20 8 11 1025.8 1025.6 0.0
22/05:30pm 25.8 19.6 -2.8 15 12.6 SSW 20 26 11 14 1025.6 1025.4 0.0
22/05:00pm 26.4 21.0 -4.2 13 13.3 SSW 15 24 8 13 1025.3 1025.1 0.0
22/04:30pm 26.9 21.2 -3.8 13 13.4 SSW 17 26 9 14 1025.1 1024.9 0.0
22/04:00pm 26.6 20.7 -2.1 15 13.0 S 19 28 10 15 1025.1 1024.9 0.0
22/03:30pm 26.8 21.4 -1.1 16 12.8 S 17 26 9 14 1025.2 1025.0 0.0
22/03:00pm 26.8 21.8 -1.1 16 12.8 SSW 15 26 8 14 1025.3 1025.1 0.0
22/02:30pm 26.4 21.1 -0.6 17 12.5 SSE 17 30 9 16 1025.5 1025.3 0.0
22/02:00pm 27.2 22.3 -0.8 16 13.0 SSE 15 22 8 12 1025.8 1025.6 0.0
22/01:30pm 26.7 22.8 -1.2 16 12.8 E 9 19 5 10 1026.2 1026.0 0.0
22/01:00pm 26.9 22.3 -1.0 16 12.9 SSE 13 28 7 15 1026.8 1026.6 0.0
22/12:30pm 26.1 21.5 -0.8 17 12.3 ESE 13 22 7 12 1027.4 1027.2 0.0
22/12:00pm 25.8 22.5 -1.1 17 12.2 E 6 11 3 6 1027.9 1027.7 0.0
22/11:30am 24.9 21.4 -1.0 18 11.7 S 7 15 4 8 1028.3 1028.1 0.0
22/11:00am 24.3 20.9 -0.8 19 11.4 NNW 7 13 4 7 1028.6 1028.5 0.0
22/10:30am 23.0 19.7 -1.1 20 10.7 WSW 6 9 3 5 1028.8 1028.7 0.0
22/10:00am 22.8 19.5 -1.3 20 10.7 WNW 6 11 3 6 1029.1 1029.0 0.0
22/09:30am 22.0 18.9 -0.1 23 9.9 NW 6 11 3 6 1029.1 1029.0 0.0
22/09:00am 20.6 17.5 -0.1 25 9.2 W 6 9 3 5 1029.3 1029.2 0.0
22/08:30am 19.7 17.3 -0.3 26 8.8 NW 2 6 1 3 1029.1 1029.0 0.0
22/08:00am 18.0 15.9 -0.8 28 8.1 CALM 0 0 0 0 1029.0 1028.9 0.0
22/07:30am 15.1 13.0 -1.0 33 6.7 CALM 0 0 0 0 1028.6 1028.5 0.0
22/07:00am 12.0 9.8 -1.9 38 5.5 CALM 0 4 0 2 1028.4 1028.3 0.0
22/06:30am 10.7 7.7 -2.0 41 4.9 WSW 4 7 2 4 1028.1 1027.9 0.0
22/06:00am 10.2 7.5 -2.1 42 4.7 SW 2 6 1 3 1027.7 1027.5 0.0
22/05:30am 9.6 6.1 -3.0 41 4.7 W 6 7 3 4 1027.4 1027.2 0.0
22/05:00am 11.3 8.0 -1.5 41 5.1 N 6 7 3 4 1027.3 1027.1 0.0
22/04:30am 10.0 6.3 -3.0 40 4.9 N 7 11 4 6 1027.0 1026.8 0.0
22/04:00am 10.7 6.5 -3.7 36 5.4 NNE 9 13 5 7 1026.7 1026.5 0.0
22/03:30am 12.2 10.0 -1.7 38 5.5 CALM 0 0 0 0 1026.5 1026.3 0.0
22/03:00am 11.8 9.4 -3.5 34 5.8 CALM 0 0 0 0 1026.5 1026.3 0.0
22/02:30am 13.0 8.5 -2.9 33 6.2 N 11 13 6 7 1026.6 1026.4 0.0
22/02:00am 14.0 10.5 -1.2 35 6.2 NW 7 9 4 5 1026.6 1026.4 0.0
22/01:30am 12.8 8.8 -2.6 34 6.0 WNW 9 11 5 6 1026.8 1026.6 0.0
22/01:00am 14.5 12.3 -1.6 33 6.6 CALM 0 0 0 0 1026.7 1026.5 0.0
22/12:30am 14.0 11.5 -1.2 35 6.2 SSW 2 6 1 3 1027.0 1026.8 0.0
22/12:00am 14.8 11.3 -1.3 33 6.6 WNW 7 9 4 5 1027.0 1026.8 0.0
 
Date/Time
CST
Temp
°C
App
Temp
°C
Dew
Point
°C
Rel
Hum
%
Delta-T
°C
Wind Press
QNH
hPa
Press
MSL
hPa
Rain since
9am
mm
Dir  Spd
km/h
Gust
km/h
Spd
kts
Gust
kts
21/11:30pm 15.8 11.9 -1.3 31 7.1 NNW 9 9 5 5 1027.2 1027.0 0.0
21/11:00pm 16.6 13.1 -1.0 30 7.5 N 7 9 4 5 1027.3 1027.1 0.0
21/10:30pm 16.2 12.6 -1.8 29 7.4 NNE 7 9 4 5 1027.2 1027.0 0.0
21/10:00pm 17.2 13.7 -1.0 29 7.7 NNE 7 9 4 5 1027.2 1027.0 0.0
21/09:30pm 17.9 14.5 -0.8 28 8.0 NNE 7 9 4 5 1027.1 1026.9 0.0
21/09:00pm 18.1 14.6 -1.2 27 8.2 NNE 7 9 4 5 1027.0 1026.8 0.0
21/08:30pm 18.2 14.4 -1.1 27 8.2 NNE 9 13 5 7 1026.8 1026.6 0.0
21/08:00pm 19.0 14.8 -0.9 26 8.6 N 11 11 6 6 1026.6 1026.4 0.0
21/07:30pm 18.7 14.4 -1.7 25 8.6 N 11 13 6 7 1026.3 1026.1 0.0
21/07:00pm 20.2 15.6 -1.0 24 9.3 N 13 15 7 8 1026.0 1025.8 0.0
21/06:30pm 20.8 16.2 -1.1 23 9.6 N 13 15 7 8 1025.6 1025.4 0.0
21/06:00pm 21.5 16.6 -0.5 23 9.8 N 15 20 8 11 1025.4 1025.2 0.0
21/05:30pm 22.2 17.7 -0.5 22 10.1 N 13 17 7 9 1025.1 1024.9 0.0
21/05:00pm 22.3 17.3 -1.1 21 10.4 N 15 22 8 12 1024.9 1024.7 0.0
21/04:30pm 22.6 17.3 -0.8 21 10.4 N 17 24 9 13 1024.9 1024.7 0.0
21/04:00pm 23.1 18.2 -0.4 21 10.7 N 15 22 8 12 1025.0 1024.8 0.0
21/03:30pm 23.4 18.1 -0.8 20 10.9 NNW 17 26 9 14 1024.9 1024.7 0.0
21/03:00pm 24.0 18.4 -0.3 20 11.1 NNE 19 26 10 14 1024.9 1024.7 0.0
21/02:30pm 23.5 17.9 -0.1 21 10.7 N 19 30 10 16 1025.2 1025.0 0.0
21/02:00pm 24.6 19.8 0.2 20 11.3 N 15 32 8 17 1025.4 1025.2 0.0
21/01:30pm 23.1 17.9 0.2 22 10.4 N 17 26 9 14 1026.1 1025.9 0.0
21/01:00pm 24.2 18.7 0.5 21 11.0 NNE 19 28 10 15 1026.4 1026.2 0.0
21/12:30pm 23.4 18.6 0.5 22 10.5 NNE 15 39 8 21 1026.9 1026.7 0.0
21/12:00pm 22.9 17.4 0.7 23 10.2 NNE 19 26 10 14 1027.2 1027.0 0.0
21/11:30am 22.5 17.0 0.9 24 9.9 NNE 19 28 10 15 1027.7 1027.5 0.0
21/11:00am 22.2 16.5 0.7 24 9.9 NNE 20 30 11 16 1028.2 1028.0 0.0
21/10:30am 21.5 15.9 1.2 26 9.3 NNE 20 28 11 15 1028.4 1028.3 0.0
21/10:00am 20.8 15.9 2.1 29 8.7 NNE 17 28 9 15 1028.7 1028.6 0.0
21/09:30am 19.4 14.6 2.7 33 7.8 NE 17 22 9 12 1028.7 1028.6 0.0
21/09:00am 17.5 13.7 4.1 41 6.3 E 13 17 7 9 1028.8 1028.7 0.0
21/08:30am 15.9 11.8 4.6 47 5.3 ESE 15 20 8 11 1028.5 1028.4 0.0
21/08:00am 13.9 10.3 5.0 55 4.2 SE 13 15 7 8 1028.4 1028.3 0.0
21/07:30am 13.0 9.8 4.9 58 3.7 SE 11 15 6 8 1028.1 1027.9 0.0
21/07:00am 10.9 7.6 4.4 64 2.9 SE 11 13 6 7 1027.6 1027.4 0.0
21/06:30am 7.9 4.6 2.4 68 2.3 SSE 9 11 5 6 1027.1 1026.9 0.0
21/06:00am 8.3 5.5 1.9 64 2.7 SSW 6 9 3 5 1026.8 1026.6 0.0
21/05:30am 9.7 5.9 3.7 66 2.6 SE 13 15 7 8 1026.2 1026.0 0.0
21/05:00am 10.1 6.2 3.6 64 2.9 SE 13 15 7 8 1026.0 1025.8 0.0
21/04:30am 9.6 6.4 2.9 63 2.9 ESE 9 11 5 6 1025.8 1025.6 0.0
21/04:00am 10.5 7.7 3.3 61 3.2 ESE 7 9 4 5 1025.8 1025.6 0.0
21/03:30am 9.8 7.4 2.4 60 3.1 SE 4 6 2 3 1025.8 1025.6 0.0
21/03:00am 10.4 7.8 3.2 61 3.1 SE 6 9 3 5 1025.7 1025.5 0.0
21/02:30am 10.8 6.7 2.4 56 3.6 ESE 13 13 7 7 1025.7 1025.5 0.0
21/02:00am 11.5 7.4 2.5 54 3.9 ESE 13 15 7 8 1025.9 1025.7 0.0
21/01:30am 12.0 8.0 2.7 53 4.1 ESE 13 15 7 8 1025.9 1025.7 0.0
21/01:00am 12.4 8.7 2.3 50 4.4 SE 11 11 6 6 1025.9 1025.7 0.0
21/12:30am 11.9 8.4 1.3 48 4.5 S 9 11 5 6 1025.9 1025.7 0.0
21/12:00am 13.7 10.4 2.6 47 4.9 SSE 9 13 5 7 1025.9 1025.7 0.0
 
Date/Time
CST
Temp
°C
App
Temp
°C
Dew
Point
°C
Rel
Hum
%
Delta-T
°C
Wind Press
QNH
hPa
Press
MSL
hPa
Rain since
9am
mm
Dir  Spd
km/h
Gust
km/h
Spd
kts
Gust
kts
20/11:30pm 13.7 11.1 3.2 49 4.7 SSW 6 9 3 5 1026.1 1025.9 0.0
20/11:00pm 14.5 11.5 3.9 49 4.9 S 9 11 5 6 1026.1 1025.9 0.0
20/10:30pm 12.9 9.9 1.9 47 4.8 WSW 7 11 4 6 1026.3 1026.1 0.0
20/10:00pm 16.1 14.9 4.5 46 5.5 CALM 0 0 0 0 1026.6 1026.4 0.0
20/09:30pm 15.8 14.6 4.5 47 5.3 CALM 0 0 0 0 1026.7 1026.5 0.0
20/09:00pm 15.8 12.8 2.2 40 6.1 SSW 7 7 4 4 1026.5 1026.3 0.0
20/08:30pm 16.7 14.1 4.4 44 5.8 SSW 7 7 4 4 1026.3 1026.1 0.0
20/08:00pm 16.6 14.0 4.0 43 5.9 SSE 7 9 4 5 1025.8 1025.6 0.0
20/07:30pm 16.5 13.5 3.9 43 5.9 SSW 9 11 5 6 1025.4 1025.2 0.0
20/07:00pm 17.1 14.0 3.4 40 6.4 SSW 9 11 5 6 1024.9 1024.7 0.0
20/06:30pm 18.3 14.5 3.8 38 6.8 SSW 13 17 7 9 1024.5 1024.3 0.0
20/06:00pm 19.1 14.5 3.7 36 7.3 S 17 22 9 12 1024.3 1024.1 0.0
20/05:30pm 19.8 15.2 3.5 34 7.7 S 17 22 9 12 1024.1 1023.9 0.0
20/05:00pm 20.1 16.3 3.8 34 7.8 SSE 13 20 7 11 1023.8 1023.6 0.0
20/04:30pm 20.7 16.7 3.0 31 8.4 SE 13 20 7 11 1023.7 1023.5 0.0
20/04:00pm 20.4 15.9 2.3 30 8.5 SSW 15 20 8 11 1023.4 1023.3 0.0
20/03:30pm 20.7 16.0 3.4 32 8.3 SSW 17 32 9 17 1023.8 1023.6 0.0
20/03:00pm 19.6 15.7 3.3 34 7.7 SSW 13 20 7 11 1023.9 1023.7 0.0
20/02:30pm 19.8 16.3 3.5 34 7.7 SW 11 20 6 11 1024.1 1023.9 0.0
20/02:00pm 19.0 15.0 5.1 40 6.8 SW 15 22 8 12 1024.4 1024.2 0.0
20/01:30pm 18.1 14.7 5.7 44 6.1 S 13 24 7 13 1024.8 1024.6 0.0
20/01:00pm 18.2 14.1 6.1 45 6.0 SW 17 26 9 14 1025.2 1025.0 0.0
20/12:30pm 17.9 14.7 6.7 48 5.6 S 13 20 7 11 1025.6 1025.4 0.0

Other Formats:

Comma delimited format used in spreadsheet applications
http://www.bom.gov.au/fwo/IDS60801/IDS60801.94659.axf

JavaScript Object Notation format (JSON) in row-major order
http://www.bom.gov.au/fwo/IDS60801/IDS60801.94659.json